createdAt,value
2023-03-22T00:01:18.843Z,100.00
2023-03-22T00:03:46.329Z,100.00
2023-03-22T00:06:13.027Z,100.00
2023-03-22T00:08:40.581Z,100.00
2023-03-22T00:11:07.432Z,100.00
2023-03-22T00:13:35.822Z,100.00
2023-03-22T00:16:02.596Z,100.00
2023-03-22T00:18:30.197Z,100.00
2023-03-22T00:20:58.450Z,100.00
2023-03-22T00:23:26.260Z,100.00
2023-03-22T00:25:52.835Z,100.00
2023-03-22T00:28:19.925Z,100.00
2023-03-22T00:31:00.925Z,100.00
2023-03-22T00:33:29.210Z,100.00
2023-03-22T00:36:00.294Z,100.00
2023-03-22T00:38:41.185Z,100.00
2023-03-22T00:41:14.456Z,100.00
2023-03-22T00:43:41.342Z,100.00
2023-03-22T00:46:09.129Z,100.00
2023-03-22T00:48:35.719Z,100.00
2023-03-22T00:51:02.568Z,100.00
2023-03-22T00:53:29.011Z,100.00
2023-03-22T00:55:56.850Z,100.00
2023-03-22T00:58:23.372Z,100.00
2023-03-22T01:00:50.424Z,100.00
2023-03-22T01:03:17.514Z,100.00
2023-03-22T01:05:46.977Z,100.00
2023-03-22T01:08:13.692Z,100.00
2023-03-22T01:10:41.339Z,100.00
2023-03-22T01:13:08.468Z,100.00
2023-03-22T01:15:35.560Z,100.00
2023-03-22T01:18:02.132Z,100.00
2023-03-22T01:20:29.390Z,100.00
2023-03-22T01:22:55.993Z,100.00
2023-03-22T01:25:22.731Z,100.00
2023-03-22T01:27:49.436Z,100.00
2023-03-22T01:30:16.179Z,100.00
2023-03-22T01:32:42.636Z,100.00
2023-03-22T01:35:09.726Z,100.00
2023-03-22T01:37:36.795Z,100.00
2023-03-22T01:40:03.714Z,100.00
2023-03-22T01:42:30.207Z,100.00
2023-03-22T01:45:14.834Z,100.00
2023-03-22T01:47:47.686Z,100.00
2023-03-22T01:50:15.568Z,100.00
2023-03-22T01:52:42.647Z,100.00
2023-03-22T01:55:09.766Z,100.00
2023-03-22T01:57:37.352Z,100.00
2023-03-22T02:00:10.878Z,100.00
2023-03-22T02:02:37.427Z,100.00
2023-03-22T02:05:04.121Z,100.00
2023-03-22T02:07:31.061Z,100.00
2023-03-22T02:09:59.255Z,100.00
2023-03-22T02:12:40.233Z,100.00
2023-03-22T02:15:17.060Z,100.00
2023-03-22T02:18:02.138Z,100.00
2023-03-22T02:20:53.465Z,100.00
2023-03-22T02:23:23.034Z,100.00
2023-03-22T02:26:17.319Z,100.00
2023-03-22T02:29:12.968Z,100.00
2023-03-22T02:32:18.517Z,100.00
2023-03-22T02:35:27.749Z,100.00
2023-03-22T02:38:16.574Z,100.00
2023-03-22T02:41:30.033Z,100.00
2023-03-22T02:44:38.286Z,100.00
2023-03-22T02:47:07.465Z,100.00
2023-03-22T02:49:52.248Z,100.00
2023-03-22T02:52:46.761Z,100.00
2023-03-22T02:55:34.593Z,100.00
2023-03-22T02:58:11.929Z,100.00
2023-03-22T03:00:40.394Z,100.00
2023-03-22T03:03:12.166Z,100.00
2023-03-22T03:05:52.972Z,100.00
2023-03-22T03:08:21.261Z,100.00
2023-03-22T03:10:49.326Z,100.00
2023-03-22T03:13:17.969Z,100.00
2023-03-22T03:15:48.780Z,100.00
2023-03-22T03:18:34.348Z,100.00
2023-03-22T03:21:31.471Z,100.00
2023-03-22T03:24:23.048Z,100.00
2023-03-22T03:26:59.741Z,100.00
2023-03-22T03:29:29.440Z,100.00
2023-03-22T03:32:05.492Z,100.00
2023-03-22T03:34:55.751Z,100.00
2023-03-22T03:37:34.057Z,100.00
2023-03-22T03:40:09.509Z,100.00
2023-03-22T03:42:39.850Z,100.00
2023-03-22T03:45:08.414Z,100.00
2023-03-22T03:47:36.320Z,100.00
2023-03-22T03:50:07.305Z,100.00
2023-03-22T03:52:34.135Z,100.00
2023-03-22T03:55:00.502Z,100.00
2023-03-22T03:57:27.249Z,100.00
2023-03-22T03:59:53.645Z,100.00
2023-03-22T04:02:20.373Z,100.00
2023-03-22T04:04:46.817Z,100.00
2023-03-22T04:07:13.296Z,100.00
2023-03-22T04:09:39.988Z,100.00
2023-03-22T04:12:06.742Z,100.00
2023-03-22T04:14:33.427Z,100.00
2023-03-22T04:16:59.966Z,100.00
2023-03-22T04:19:26.472Z,100.00
2023-03-22T04:21:53.377Z,100.00
2023-03-22T04:24:21.994Z,100.00
2023-03-22T04:26:48.794Z,100.00
2023-03-22T04:29:15.636Z,100.00
2023-03-22T04:31:42.078Z,100.00
2023-03-22T04:34:08.517Z,100.00
2023-03-22T04:36:37.718Z,100.00
2023-03-22T04:39:04.867Z,100.00
2023-03-22T04:41:32.075Z,100.00
2023-03-22T04:43:58.736Z,100.00
2023-03-22T04:46:25.289Z,100.00
2023-03-22T04:48:51.853Z,100.00
2023-03-22T04:51:18.505Z,100.00
2023-03-22T04:53:44.832Z,100.00
2023-03-22T04:56:13.031Z,100.00
2023-03-22T04:58:42.742Z,100.00
2023-03-22T05:01:10.888Z,100.00
2023-03-22T05:03:38.109Z,100.00
2023-03-22T05:06:06.986Z,100.00
2023-03-22T05:08:34.561Z,100.00
2023-03-22T05:11:07.396Z,100.00
2023-03-22T05:13:33.938Z,100.00
2023-03-22T05:16:00.368Z,100.00
2023-03-22T05:18:27.097Z,100.00
2023-03-22T05:20:56.314Z,100.00
2023-03-22T05:23:23.789Z,100.00
2023-03-22T05:25:52.358Z,100.00
2023-03-22T05:28:20.584Z,100.00
2023-03-22T05:30:49.141Z,100.00
2023-03-22T05:33:15.814Z,100.00
2023-03-22T05:35:42.991Z,100.00
2023-03-22T05:38:09.952Z,100.00
2023-03-22T05:40:36.457Z,100.00
2023-03-22T05:43:02.851Z,100.00
2023-03-22T05:45:29.263Z,100.00
2023-03-22T05:47:55.821Z,100.00
2023-03-22T05:50:23.406Z,100.00
2023-03-22T05:52:50.944Z,100.00
2023-03-22T05:55:17.909Z,100.00
2023-03-22T05:57:45.476Z,100.00
2023-03-22T06:00:14.711Z,100.00
2023-03-22T06:02:42.186Z,100.00
2023-03-22T06:05:10.183Z,100.00
2023-03-22T06:07:37.349Z,100.00
2023-03-22T06:10:05.695Z,100.00
2023-03-22T06:12:32.473Z,100.00
2023-03-22T06:14:59.546Z,100.00
2023-03-22T06:17:26.587Z,100.00
2023-03-22T06:19:53.362Z,100.00
2023-03-22T06:22:20.366Z,100.00
2023-03-22T06:24:46.979Z,100.00
2023-03-22T06:27:14.305Z,100.00
2023-03-22T06:29:40.850Z,100.00
2023-03-22T06:32:07.462Z,100.00
2023-03-22T06:34:34.441Z,100.00
2023-03-22T06:37:00.938Z,100.00
2023-03-22T06:39:27.341Z,100.00
2023-03-22T06:41:54.098Z,100.00
2023-03-22T06:44:20.459Z,100.00
2023-03-22T06:46:47.712Z,100.00
2023-03-22T06:49:14.481Z,100.00
2023-03-22T06:51:40.897Z,100.00
2023-03-22T06:54:07.406Z,100.00
2023-03-22T06:56:33.954Z,100.00
2023-03-22T06:59:00.602Z,100.00
2023-03-22T07:01:27.267Z,100.00
2023-03-22T07:03:53.843Z,100.00
2023-03-22T07:06:20.375Z,100.00
2023-03-22T07:08:46.998Z,100.00
2023-03-22T07:11:13.688Z,100.00
2023-03-22T07:13:40.255Z,100.00
2023-03-22T07:16:07.612Z,100.00
2023-03-22T07:18:34.278Z,100.00
2023-03-22T07:21:00.831Z,100.00
2023-03-22T07:23:27.401Z,100.00
2023-03-22T07:25:54.125Z,100.00
2023-03-22T07:28:20.649Z,100.00
2023-03-22T07:30:47.151Z,100.00
2023-03-22T07:33:14.245Z,100.00
2023-03-22T07:35:40.859Z,100.00
2023-03-22T07:38:08.880Z,100.00
2023-03-22T07:40:36.462Z,100.00
2023-03-22T07:43:02.878Z,100.00
2023-03-22T07:45:29.356Z,100.00
2023-03-22T07:47:55.807Z,100.00
2023-03-22T07:50:22.346Z,100.00
2023-03-22T07:52:48.760Z,100.00
2023-03-22T07:55:15.721Z,100.00
2023-03-22T07:57:42.057Z,100.00
2023-03-22T08:00:09.481Z,100.00
2023-03-22T08:02:36.384Z,100.00
2023-03-22T08:05:03.131Z,100.00
2023-03-22T08:07:29.467Z,100.00
2023-03-22T08:09:58.205Z,100.00
2023-03-22T08:12:24.758Z,100.00
2023-03-22T08:14:51.391Z,100.00
2023-03-22T08:17:18.977Z,100.00
2023-03-22T08:19:45.872Z,100.00
2023-03-22T08:22:12.798Z,100.00
2023-03-22T08:24:39.336Z,100.00
2023-03-22T08:27:05.863Z,100.00
2023-03-22T08:29:32.170Z,100.00
2023-03-22T08:31:58.745Z,100.00
2023-03-22T08:34:25.252Z,100.00
2023-03-22T08:36:51.646Z,100.00
2023-03-22T08:39:18.147Z,100.00
2023-03-22T08:41:44.506Z,100.00
2023-03-22T08:44:11.113Z,100.00
2023-03-22T08:46:38.041Z,100.00
2023-03-22T08:49:04.665Z,100.00
2023-03-22T08:51:31.093Z,100.00
2023-03-22T08:53:57.498Z,100.00
2023-03-22T08:56:24.177Z,100.00
2023-03-22T08:58:50.636Z,100.00
2023-03-22T09:01:17.657Z,100.00
2023-03-22T09:03:44.609Z,100.00
2023-03-22T09:06:11.489Z,98.82
2023-03-22T09:08:38.099Z,94.82
2023-03-22T09:11:04.915Z,95.62
2023-03-22T09:13:31.494Z,91.52
2023-03-22T09:15:58.017Z,92.61
2023-03-22T09:18:25.667Z,90.20
2023-03-22T09:20:52.452Z,89.88
2023-03-22T09:23:20.336Z,90.94
2023-03-22T09:25:48.710Z,93.23
2023-03-22T09:28:16.134Z,92.11
2023-03-22T09:30:43.046Z,89.67
2023-03-22T09:33:09.532Z,89.96
2023-03-22T09:35:36.227Z,86.66
2023-03-22T09:38:02.922Z,85.83
2023-03-22T09:40:33.010Z,84.86
2023-03-22T09:43:04.804Z,83.72
2023-03-22T09:45:46.469Z,82.63
2023-03-22T09:48:33.598Z,85.54
2023-03-22T09:51:01.392Z,84.90
2023-03-22T09:53:29.984Z,82.40
2023-03-22T09:56:18.841Z,87.04
2023-03-22T09:59:04.091Z,85.47
2023-03-22T10:01:36.329Z,83.14
2023-03-22T10:04:30.772Z,82.19
2023-03-22T10:07:12.655Z,72.89
2023-03-22T10:09:55.747Z,74.79
2023-03-22T10:12:29.865Z,68.85
2023-03-22T10:15:10.577Z,62.67
2023-03-22T10:17:39.960Z,60.24
2023-03-22T10:20:21.695Z,62.24
2023-03-22T10:22:53.222Z,63.93
2023-03-22T10:25:23.999Z,64.36
2023-03-22T10:27:51.735Z,65.94
2023-03-22T10:30:24.509Z,64.28
2023-03-22T10:33:04.901Z,61.52
2023-03-22T10:35:32.152Z,59.54
2023-03-22T10:38:02.922Z,59.69
2023-03-22T10:40:35.856Z,59.44
2023-03-22T10:43:21.377Z,54.50
2023-03-22T10:45:49.019Z,54.57
2023-03-22T10:48:32.295Z,53.21
2023-03-22T10:51:01.018Z,53.02
2023-03-22T10:53:48.444Z,53.26
2023-03-22T10:56:19.320Z,59.66
2023-03-22T10:58:47.373Z,54.69
2023-03-22T11:01:24.294Z,52.28
2023-03-22T11:03:55.196Z,52.69
2023-03-22T11:06:31.280Z,49.64
2023-03-22T11:09:10.444Z,53.35
2023-03-22T11:11:46.599Z,50.56
2023-03-22T11:14:22.955Z,50.72
2023-03-22T11:16:55.011Z,47.45
2023-03-22T11:19:49.564Z,48.07
2023-03-22T11:22:35.760Z,46.42
2023-03-22T11:25:07.130Z,43.32
2023-03-22T11:27:34.851Z,43.24
2023-03-22T11:30:22.672Z,45.36
2023-03-22T11:32:51.177Z,43.77
2023-03-22T11:35:22.078Z,46.50
2023-03-22T11:37:54.216Z,46.90
2023-03-22T11:40:27.251Z,48.05
2023-03-22T11:43:11.072Z,46.55
2023-03-22T11:45:43.764Z,45.02
2023-03-22T11:48:18.941Z,43.56
2023-03-22T11:50:46.382Z,41.15
2023-03-22T11:53:19.752Z,42.46
2023-03-22T11:55:48.636Z,41.66
2023-03-22T11:58:52.589Z,42.00
2023-03-22T12:01:34.982Z,40.73
2023-03-22T12:04:05.662Z,38.89
2023-03-22T12:06:36.295Z,38.22
2023-03-22T12:09:29.004Z,37.83
2023-03-22T12:11:57.400Z,37.16
2023-03-22T12:14:29.527Z,37.58
2023-03-22T12:17:15.820Z,37.08
2023-03-22T12:19:52.309Z,37.47
2023-03-22T12:22:27.052Z,37.91
2023-03-22T12:24:53.705Z,38.36
2023-03-22T12:27:28.672Z,38.70
2023-03-22T12:30:01.281Z,37.91
2023-03-22T12:32:39.413Z,37.53
2023-03-22T12:35:17.285Z,37.45
2023-03-22T12:37:48.618Z,36.16
2023-03-22T12:40:26.091Z,37.91
2023-03-22T12:43:26.165Z,35.07
2023-03-22T12:45:59.003Z,35.83
2023-03-22T12:48:31.777Z,35.90
2023-03-22T12:51:02.868Z,37.05
2023-03-22T12:53:35.513Z,35.88
2023-03-22T12:56:03.112Z,35.55
2023-03-22T12:58:29.506Z,35.34
2023-03-22T13:01:01.281Z,36.55
2023-03-22T13:03:49.104Z,35.33
2023-03-22T13:06:34.428Z,35.66
2023-03-22T13:09:03.373Z,35.92
2023-03-22T13:11:30.365Z,35.00
2023-03-22T13:13:56.917Z,35.34
2023-03-22T13:16:42.296Z,35.95
2023-03-22T13:19:26.177Z,36.26
2023-03-22T13:22:16.786Z,35.81
2023-03-22T13:25:01.614Z,35.94
2023-03-22T13:27:57.001Z,36.34
2023-03-22T13:30:47.225Z,36.60
2023-03-22T13:33:28.397Z,36.95
2023-03-22T13:36:07.447Z,35.61
2023-03-22T13:38:37.952Z,35.89
2023-03-22T13:41:13.874Z,36.07
2023-03-22T13:43:42.978Z,35.64
2023-03-22T13:46:09.529Z,35.90
2023-03-22T13:48:52.080Z,36.17
2023-03-22T13:51:21.325Z,35.77
2023-03-22T13:54:04.471Z,36.35
2023-03-22T13:56:33.990Z,36.85
2023-03-22T13:59:02.149Z,36.62
2023-03-22T14:01:34.583Z,36.99
2023-03-22T14:04:06.746Z,37.43
2023-03-22T14:06:42.997Z,37.12
2023-03-22T14:09:27.445Z,37.41
2023-03-22T14:12:00.627Z,36.49
2023-03-22T14:14:36.856Z,35.34
2023-03-22T14:17:15.124Z,35.23
2023-03-22T14:19:42.404Z,34.87
